createdAt,value
2023-03-05T00:01:33.635Z,94527.25
2023-03-05T00:04:01.821Z,94526.41
2023-03-05T00:06:30.190Z,94529.66
2023-03-05T00:08:58.449Z,94529.72
2023-03-05T00:11:29.757Z,94530.63
2023-03-05T00:13:57.686Z,94520.50
2023-03-05T00:16:26.953Z,94490.97
2023-03-05T00:18:55.422Z,94515.28
2023-03-05T00:21:27.764Z,94491.44
2023-03-05T00:23:54.871Z,94521.88
2023-03-05T00:26:23.868Z,94504.56
2023-03-05T00:28:52.439Z,94517.16
2023-03-05T00:31:22.101Z,94501.69
2023-03-05T00:33:56.263Z,94503.44
2023-03-05T00:36:24.605Z,94507.28
2023-03-05T00:38:51.466Z,94509.75
2023-03-05T00:41:18.172Z,94497.66
2023-03-05T00:43:44.816Z,94472.50
2023-03-05T00:46:11.596Z,94488.72
2023-03-05T00:48:38.228Z,94492.41
2023-03-05T00:51:05.127Z,94479.63
2023-03-05T00:53:31.808Z,94473.19
2023-03-05T00:55:58.851Z,94485.66
2023-03-05T00:58:25.471Z,94483.91
2023-03-05T01:00:52.025Z,94476.84
2023-03-05T01:03:19.379Z,94473.03
2023-03-05T01:05:46.078Z,94446.84
2023-03-05T01:08:12.683Z,94458.94
2023-03-05T01:10:39.335Z,94464.47
2023-03-05T01:13:05.944Z,94470.44
2023-03-05T01:15:32.650Z,94471.00
2023-03-05T01:17:59.294Z,94473.88
2023-03-05T01:20:25.894Z,94478.88
2023-03-05T01:22:53.045Z,94454.88
2023-03-05T01:25:19.738Z,94442.66
2023-03-05T01:27:46.449Z,94462.25
2023-03-05T01:30:14.771Z,94465.28
2023-03-05T01:32:41.676Z,94458.31
2023-03-05T01:35:11.069Z,94469.00
2023-03-05T01:37:37.644Z,94470.38
2023-03-05T01:40:05.622Z,94460.00
2023-03-05T01:42:32.267Z,94427.25
2023-03-05T01:45:10.290Z,94463.59
2023-03-05T01:47:37.712Z,94459.91
2023-03-05T01:50:07.942Z,94457.41
2023-03-05T01:52:37.823Z,94431.22
2023-03-05T01:55:17.472Z,94457.28
2023-03-05T01:57:48.048Z,94470.06
2023-03-05T02:00:22.464Z,94459.16
2023-03-05T02:02:51.395Z,94460.25
2023-03-05T02:05:29.513Z,94445.50
2023-03-05T02:08:01.857Z,94442.72
2023-03-05T02:10:34.186Z,94461.56
2023-03-05T02:13:04.149Z,94463.88
2023-03-05T02:15:31.092Z,94453.19
2023-03-05T02:17:57.739Z,94440.69
2023-03-05T02:20:53.916Z,94464.63
2023-03-05T02:23:22.681Z,94466.59
2023-03-05T02:25:49.803Z,94439.28
2023-03-05T02:28:46.027Z,94464.31
2023-03-05T02:31:21.484Z,94452.34
2023-03-05T02:33:48.722Z,94450.75
2023-03-05T02:36:15.960Z,94455.38
2023-03-05T02:38:43.336Z,94459.69
2023-03-05T02:41:10.527Z,94448.44
2023-03-05T02:43:37.408Z,94472.81
2023-03-05T02:46:04.426Z,94456.28
2023-03-05T02:48:31.637Z,94452.09
2023-03-05T02:50:58.323Z,94465.72
2023-03-05T02:53:26.393Z,94469.94
2023-03-05T02:55:53.206Z,94464.31
2023-03-05T02:58:19.814Z,94470.25
2023-03-05T03:00:49.348Z,94470.16
2023-03-05T03:03:16.192Z,94464.34
2023-03-05T03:05:42.918Z,94474.91
2023-03-05T03:08:10.438Z,94455.16
2023-03-05T03:10:37.401Z,94449.56
2023-03-05T03:13:04.099Z,94463.69
2023-03-05T03:15:30.670Z,94457.44
2023-03-05T03:17:57.298Z,94452.34
2023-03-05T03:20:24.369Z,94457.97
2023-03-05T03:22:51.109Z,94453.47
2023-03-05T03:25:20.706Z,94454.44
2023-03-05T03:27:47.335Z,94479.16
2023-03-05T03:30:15.511Z,94462.31
2023-03-05T03:32:42.480Z,94465.88
2023-03-05T03:35:09.725Z,94474.84
2023-03-05T03:37:36.404Z,94472.16
2023-03-05T03:40:05.601Z,94460.38
2023-03-05T03:42:32.815Z,94452.94
2023-03-05T03:45:00.639Z,94461.66
2023-03-05T03:47:27.248Z,94470.84
2023-03-05T03:49:54.820Z,94465.78
2023-03-05T03:52:23.012Z,94472.69
2023-03-05T03:54:52.435Z,94457.06
2023-03-05T03:57:19.425Z,94460.31
2023-03-05T03:59:46.187Z,94470.88
2023-03-05T04:02:12.958Z,94463.31
2023-03-05T04:04:39.837Z,94470.13
2023-03-05T04:07:06.481Z,94477.56
2023-03-05T04:09:33.240Z,94472.69
2023-03-05T04:11:59.854Z,94473.88
2023-03-05T04:14:27.305Z,94476.59
2023-03-05T04:16:53.898Z,94465.00
2023-03-05T04:19:20.565Z,94461.59
2023-03-05T04:21:47.209Z,94473.78
2023-03-05T04:24:13.883Z,94454.47
2023-03-05T04:26:40.475Z,94470.75
2023-03-05T04:29:07.108Z,94485.56
2023-03-05T04:31:33.750Z,94457.41
2023-03-05T04:34:00.380Z,94474.19
2023-03-05T04:36:26.985Z,94449.41
2023-03-05T04:38:53.587Z,94466.09
2023-03-05T04:41:20.238Z,94471.84
2023-03-05T04:43:46.819Z,94470.25
2023-03-05T04:46:13.495Z,94480.69
2023-03-05T04:48:40.284Z,94474.44
2023-03-05T04:51:06.888Z,94477.56
2023-03-05T04:53:33.596Z,94445.50
2023-03-05T04:56:01.691Z,94447.78
2023-03-05T04:58:28.986Z,94469.13
2023-03-05T05:01:01.224Z,94452.72
2023-03-05T05:03:27.733Z,94469.69
2023-03-05T05:05:56.135Z,94463.53
2023-03-05T05:08:23.503Z,94466.00
2023-03-05T05:11:04.828Z,94479.28
2023-03-05T05:13:32.424Z,94469.69
2023-03-05T05:15:59.409Z,94461.69
2023-03-05T05:18:27.262Z,94466.22
2023-03-05T05:20:53.849Z,94447.78
2023-03-05T05:23:20.424Z,94450.47
2023-03-05T05:25:55.385Z,94435.25
2023-03-05T05:28:21.959Z,94470.78
2023-03-05T05:30:48.578Z,94448.34
2023-03-05T05:33:15.312Z,94465.03
2023-03-05T05:35:41.989Z,94482.97
2023-03-05T05:38:08.660Z,94461.81
2023-03-05T05:40:35.236Z,94483.72
2023-03-05T05:43:01.815Z,94473.03
2023-03-05T05:45:28.553Z,94467.53
2023-03-05T05:47:55.432Z,94488.13
2023-03-05T05:50:22.026Z,94493.09
2023-03-05T05:52:48.647Z,94462.66
2023-03-05T05:55:16.268Z,94484.06
2023-03-05T05:57:42.931Z,94444.56
2023-03-05T06:00:12.148Z,94489.44
2023-03-05T06:02:43.127Z,94486.28
2023-03-05T06:05:14.874Z,94497.41
2023-03-05T06:07:41.554Z,94497.75
2023-03-05T06:10:09.940Z,94486.84
2023-03-05T06:12:36.658Z,94516.75
2023-03-05T06:15:03.457Z,94512.63
2023-03-05T06:17:31.035Z,94512.31
2023-03-05T06:19:58.844Z,94501.06
2023-03-05T06:22:25.572Z,94491.09
2023-03-05T06:24:52.217Z,94506.81
2023-03-05T06:27:18.893Z,94513.16
2023-03-05T06:29:45.475Z,94483.69
2023-03-05T06:32:12.160Z,94506.25
2023-03-05T06:34:38.789Z,94501.59
2023-03-05T06:37:05.444Z,94510.56
2023-03-05T06:39:32.102Z,94512.81
2023-03-05T06:41:58.777Z,94531.06
2023-03-05T06:44:25.868Z,94512.81
2023-03-05T06:46:52.584Z,94518.78
2023-03-05T06:49:19.208Z,94518.47
2023-03-05T06:51:45.831Z,94520.19
2023-03-05T06:54:15.374Z,94512.44
2023-03-05T06:56:44.550Z,94510.13
2023-03-05T06:59:12.809Z,94516.94
2023-03-05T07:01:39.421Z,94499.13
2023-03-05T07:04:07.124Z,94515.22
2023-03-05T07:06:36.186Z,94551.47
2023-03-05T07:09:04.492Z,94533.31
2023-03-05T07:11:31.738Z,94528.09
2023-03-05T07:13:58.761Z,94522.22
2023-03-05T07:16:28.010Z,94553.47
2023-03-05T07:18:57.130Z,94551.91
2023-03-05T07:21:27.644Z,94540.88
2023-03-05T07:23:55.440Z,94515.13
2023-03-05T07:26:22.911Z,94539.13
2023-03-05T07:28:49.820Z,94549.75
2023-03-05T07:31:22.326Z,94537.72
2023-03-05T07:33:50.871Z,94529.06
2023-03-05T07:36:17.954Z,94526.78
2023-03-05T07:38:45.390Z,94546.44
2023-03-05T07:41:19.997Z,94508.28
2023-03-05T07:43:48.887Z,94513.81
2023-03-05T07:46:17.814Z,94534.78
2023-03-05T07:48:45.112Z,94532.13
2023-03-05T07:51:15.901Z,94527.97
2023-03-05T07:53:46.767Z,94539.75
2023-03-05T07:56:13.818Z,94543.16
2023-03-05T07:58:40.440Z,94533.47
2023-03-05T08:01:14.416Z,94519.44
2023-03-05T08:03:42.664Z,94531.94
2023-03-05T08:06:11.570Z,94537.47
2023-03-05T08:08:38.589Z,94529.97
2023-03-05T08:11:06.764Z,94517.50
2023-03-05T08:13:33.494Z,94530.81
2023-03-05T08:16:04.058Z,94523.72
2023-03-05T08:18:30.666Z,94511.84
2023-03-05T08:20:58.088Z,94489.84
2023-03-05T08:23:24.681Z,94509.75
2023-03-05T08:25:51.258Z,94528.88
2023-03-05T08:28:19.692Z,94529.66
2023-03-05T08:30:49.119Z,94516.38
2023-03-05T08:33:17.727Z,94520.84
2023-03-05T08:35:45.427Z,94509.50
2023-03-05T08:38:15.551Z,94525.47
2023-03-05T08:40:43.304Z,94511.97
2023-03-05T08:43:10.158Z,94511.53
2023-03-05T08:45:39.294Z,94491.06
2023-03-05T08:48:06.125Z,94492.09
2023-03-05T08:50:32.698Z,94482.88
2023-03-05T08:53:00.192Z,94460.63
2023-03-05T08:55:26.786Z,94497.19
2023-03-05T08:57:53.444Z,94489.50
2023-03-05T09:00:20.343Z,94491.34
2023-03-05T09:02:46.998Z,94483.34
2023-03-05T09:05:15.674Z,94489.25
2023-03-05T09:07:42.528Z,94475.44
2023-03-05T09:10:11.588Z,94457.53
2023-03-05T09:12:38.196Z,94471.09
2023-03-05T09:15:08.248Z,94449.84
2023-03-05T09:17:38.738Z,94486.91
2023-03-05T09:20:06.648Z,94482.69
2023-03-05T09:22:33.387Z,94486.19
2023-03-05T09:24:59.935Z,94470.03
2023-03-05T09:27:26.558Z,94473.47
2023-03-05T09:29:53.313Z,94451.56
2023-03-05T09:32:20.145Z,94469.16
2023-03-05T09:34:46.839Z,94446.91
2023-03-05T09:37:13.510Z,94462.44
2023-03-05T09:39:40.307Z,94458.38
2023-03-05T09:42:15.783Z,94451.06
2023-03-05T09:44:51.482Z,94442.63
2023-03-05T09:47:38.961Z,94454.19
2023-03-05T09:50:23.622Z,94445.16
2023-03-05T09:52:57.738Z,94440.91
2023-03-05T09:55:29.937Z,94438.06
2023-03-05T09:58:03.532Z,94436.47
2023-03-05T10:00:38.526Z,94447.44
2023-03-05T10:03:22.866Z,94435.88
2023-03-05T10:06:09.755Z,94413.53
2023-03-05T10:09:06.900Z,94436.56
2023-03-05T10:11:50.441Z,94417.94
2023-03-05T10:14:30.277Z,94429.91
2023-03-05T10:17:24.161Z,94414.88
2023-03-05T10:20:28.115Z,94424.75
2023-03-05T10:23:06.743Z,94424.28
2023-03-05T10:26:05.945Z,94387.28
2023-03-05T10:29:06.781Z,94409.63
2023-03-05T10:31:59.529Z,94399.59
2023-03-05T10:34:43.026Z,94388.69
2023-03-05T10:37:31.979Z,94395.97
2023-03-05T10:40:14.185Z,94395.41
2023-03-05T10:43:02.851Z,94391.59
2023-03-05T10:45:37.099Z,94292.34
2023-03-05T10:48:35.100Z,94381.47
2023-03-05T10:51:21.724Z,94361.28
2023-03-05T10:53:56.922Z,94338.69
2023-03-05T10:56:29.960Z,94281.25
2023-03-05T10:59:01.766Z,94362.34
2023-03-05T11:01:36.636Z,94380.91
2023-03-05T11:04:25.168Z,94378.41
2023-03-05T11:06:57.630Z,94369.38
2023-03-05T11:09:29.679Z,94352.78
2023-03-05T11:12:16.872Z,94352.22
2023-03-05T11:15:04.138Z,94348.13
2023-03-05T11:17:38.633Z,94341.91
2023-03-05T11:20:26.552Z,94339.34
2023-03-05T11:23:29.888Z,94324.72
2023-03-05T11:26:00.938Z,94332.59
2023-03-05T11:28:37.303Z,94339.59
2023-03-05T11:31:23.646Z,94317.44
2023-03-05T11:34:04.229Z,94333.47
2023-03-05T11:36:42.079Z,94323.47
2023-03-05T11:39:14.919Z,94312.53
2023-03-05T11:41:48.000Z,94305.00
2023-03-05T11:44:21.110Z,94237.91
2023-03-05T11:46:52.593Z,94293.28
2023-03-05T11:49:23.254Z,94302.94
2023-03-05T11:51:55.741Z,94301.38
2023-03-05T11:54:30.051Z,94278.88
2023-03-05T11:56:56.896Z,94282.41
2023-03-05T11:59:29.571Z,94267.84
2023-03-05T12:01:58.532Z,94286.47
2023-03-05T12:04:25.826Z,94285.91
2023-03-05T12:07:00.604Z,94268.25
2023-03-05T12:09:42.340Z,94265.28
2023-03-05T12:12:17.880Z,94272.84
2023-03-05T12:14:58.240Z,94277.25
2023-03-05T12:17:37.987Z,94270.72
2023-03-05T12:20:35.545Z,94270.97
2023-03-05T12:23:02.255Z,94263.38
2023-03-05T12:25:44.639Z,94257.28
2023-03-05T12:28:34.302Z,94251.19
2023-03-05T12:31:02.845Z,94246.38
2023-03-05T12:33:33.033Z,94247.34
2023-03-05T12:36:21.147Z,94250.88
2023-03-05T12:38:57.507Z,94223.28
2023-03-05T12:41:25.392Z,94232.97
2023-03-05T12:44:05.682Z,94243.78
2023-03-05T12:46:43.720Z,94224.25
2023-03-05T12:49:19.234Z,94235.44
2023-03-05T12:51:56.870Z,94207.69
2023-03-05T12:54:42.050Z,94210.53
2023-03-05T12:57:19.140Z,94226.53
2023-03-05T12:59:59.709Z,94212.75
2023-03-05T13:02:28.601Z,94226.44
2023-03-05T13:05:00.535Z,94221.84
2023-03-05T13:07:27.204Z,94218.69
2023-03-05T13:09:57.339Z,94219.91
2023-03-05T13:12:26.187Z,94227.38
2023-03-05T13:15:08.911Z,94221.44
2023-03-05T13:17:44.525Z,94213.78
2023-03-05T13:20:38.840Z,94220.75
2023-03-05T13:23:24.786Z,94212.66
2023-03-05T13:26:10.385Z,94218.81
2023-03-05T13:28:39.445Z,94194.16
2023-03-05T13:31:18.619Z,94213.38
2023-03-05T13:33:54.551Z,94196.13
2023-03-05T13:36:24.150Z,94189.41
2023-03-05T13:38:51.674Z,94210.97
2023-03-05T13:41:28.970Z,94195.97
2023-03-05T13:44:00.955Z,94203.28
2023-03-05T13:46:34.648Z,94217.53
2023-03-05T13:49:36.664Z,94212.00
2023-03-05T13:52:03.379Z,94212.19
2023-03-05T13:54:30.667Z,94213.59
2023-03-05T13:57:00.630Z,94216.22
2023-03-05T13:59:35.367Z,94192.03
2023-03-05T14:02:15.750Z,94211.53
2023-03-05T14:04:45.000Z,94196.72
2023-03-05T14:07:20.204Z,94218.47
2023-03-05T14:09:52.125Z,94214.53
2023-03-05T14:12:35.628Z,94168.94
2023-03-05T14:15:02.501Z,94198.56
2023-03-05T14:17:38.836Z,94186.69
2023-03-05T14:20:14.792Z,94214.25
2023-03-05T14:22:46.480Z,94216.50
2023-03-05T14:25:42.411Z,94208.63
2023-03-05T14:28:17.870Z,94220.53
2023-03-05T14:31:02.662Z,94214.97
2023-03-05T14:33:32.748Z,94208.09
2023-03-05T14:36:01.576Z,94196.72
2023-03-05T14:38:31.792Z,94204.41
2023-03-05T14:40:58.478Z,94212.97
2023-03-05T14:43:25.124Z,94201.19
2023-03-05T14:45:51.858Z,94192.31
2023-03-05T14:48:21.284Z,94196.69
2023-03-05T14:50:57.008Z,94193.59
2023-03-05T14:53:30.077Z,94203.19
2023-03-05T14:55:57.028Z,94211.25
2023-03-05T14:58:32.310Z,94189.59
2023-03-05T15:00:59.830Z,94211.38
2023-03-05T15:03:27.991Z,94191.56
2023-03-05T15:06:00.710Z,94191.47
2023-03-05T15:08:31.048Z,94186.78
2023-03-05T15:11:00.063Z,94205.13
2023-03-05T15:13:27.220Z,94208.66
2023-03-05T15:15:54.184Z,94213.13
2023-03-05T15:18:22.521Z,94220.78
2023-03-05T15:20:52.021Z,94216.41
2023-03-05T15:23:19.381Z,94222.22
2023-03-05T15:25:46.207Z,94190.81
2023-03-05T15:28:12.868Z,94219.81
2023-03-05T15:30:42.408Z,94209.28
2023-03-05T15:33:12.059Z,94211.00
2023-03-05T15:35:38.775Z,94214.75
2023-03-05T15:38:05.587Z,94218.69
2023-03-05T15:40:32.465Z,94226.84
2023-03-05T15:43:00.371Z,94223.72
2023-03-05T15:45:27.991Z,94221.00
2023-03-05T15:47:54.730Z,94229.31
2023-03-05T15:50:22.167Z,94230.22
2023-03-05T15:52:49.757Z,94228.38
2023-03-05T15:55:18.378Z,94229.66
2023-03-05T15:57:48.052Z,94232.69
2023-03-05T16:00:17.716Z,94226.53
2023-03-05T16:02:44.337Z,94231.84
2023-03-05T16:05:11.398Z,94236.06
2023-03-05T16:07:42.013Z,94225.53
2023-03-05T16:10:13.128Z,94236.84
2023-03-05T16:12:42.966Z,94252.63
2023-03-05T16:15:17.143Z,94238.81
2023-03-05T16:17:45.487Z,94237.88
2023-03-05T16:20:12.917Z,94252.63
2023-03-05T16:22:40.072Z,94247.84
2023-03-05T16:25:07.006Z,94250.25
2023-03-05T16:27:34.074Z,94234.13
2023-03-05T16:30:00.778Z,94238.94
2023-03-05T16:32:27.435Z,94238.78
2023-03-05T16:34:54.021Z,94237.56
2023-03-05T16:37:23.247Z,94259.09
2023-03-05T16:39:50.157Z,94262.38
2023-03-05T16:42:16.994Z,94250.28
2023-03-05T16:44:44.755Z,94251.63
2023-03-05T16:47:12.334Z,94254.78
2023-03-05T16:49:39.918Z,94257.06
2023-03-05T16:52:18.421Z,94249.06
2023-03-05T16:54:46.376Z,94273.72
2023-03-05T16:57:13.049Z,94277.88
2023-03-05T16:59:44.368Z,94255.16
2023-03-05T17:02:13.270Z,94282.06
2023-03-05T17:04:40.161Z,94280.38
2023-03-05T17:07:07.218Z,94282.41
2023-03-05T17:09:33.867Z,94286.97
2023-03-05T17:12:00.825Z,94272.50
2023-03-05T17:14:27.457Z,94272.91
2023-03-05T17:16:57.116Z,94284.03
2023-03-05T17:19:23.716Z,94284.22
2023-03-05T17:21:52.186Z,94301.44
2023-03-05T17:24:22.798Z,94307.91
2023-03-05T17:26:50.153Z,94290.06
2023-03-05T17:29:18.989Z,94306.78
2023-03-05T17:31:46.582Z,94285.66
2023-03-05T17:34:13.322Z,94314.13
2023-03-05T17:36:40.100Z,94309.03
2023-03-05T17:39:06.796Z,94322.03
2023-03-05T17:41:33.395Z,94316.78
2023-03-05T17:44:00.121Z,94323.03
2023-03-05T17:46:28.924Z,94292.16
2023-03-05T17:48:55.686Z,94316.97
2023-03-05T17:51:22.405Z,94315.47
2023-03-05T17:53:49.082Z,94325.38
2023-03-05T17:56:22.204Z,94322.38
2023-03-05T17:58:49.902Z,94309.72
2023-03-05T18:01:28.387Z,94290.88
2023-03-05T18:03:55.730Z,94333.91
2023-03-05T18:06:22.938Z,94341.13
2023-03-05T18:08:52.476Z,94322.53
2023-03-05T18:11:19.177Z,94344.88
2023-03-05T18:13:48.291Z,94347.44
2023-03-05T18:16:18.494Z,94330.97
2023-03-05T18:18:45.423Z,94332.28
2023-03-05T18:21:12.409Z,94351.91
2023-03-05T18:23:41.433Z,94325.28
2023-03-05T18:26:14.731Z,94343.59
2023-03-05T18:28:41.666Z,94345.97
2023-03-05T18:31:08.803Z,94337.13
2023-03-05T18:33:35.753Z,94336.28
2023-03-05T18:36:02.816Z,94360.66
2023-03-05T18:38:31.920Z,94362.59
2023-03-05T18:41:03.573Z,94355.19
2023-03-05T18:43:33.124Z,94365.75
2023-03-05T18:46:00.061Z,94341.94
2023-03-05T18:48:26.837Z,94362.22
2023-03-05T18:50:54.362Z,94364.25
2023-03-05T18:53:22.431Z,94313.38
2023-03-05T18:55:51.333Z,94371.47
2023-03-05T18:58:18.452Z,94363.09
2023-03-05T19:00:47.118Z,94354.78
2023-03-05T19:03:15.063Z,94342.50
2023-03-05T19:05:42.598Z,94359.13
2023-03-05T19:08:09.994Z,94369.25
2023-03-05T19:10:36.956Z,94381.97
2023-03-05T19:13:49.056Z,94360.94
2023-03-05T19:16:19.759Z,94392.34
2023-03-05T19:19:24.730Z,94383.03
2023-03-05T19:21:58.706Z,94381.97
2023-03-05T19:24:30.595Z,94387.38
2023-03-05T19:27:01.095Z,94376.47
2023-03-05T19:29:33.200Z,94365.22
2023-03-05T19:31:59.960Z,94376.47
2023-03-05T19:34:26.690Z,94371.47
2023-03-05T19:36:53.401Z,94384.88
2023-03-05T19:39:20.047Z,94355.72
2023-03-05T19:41:46.686Z,94390.91
2023-03-05T19:44:13.778Z,94372.78
2023-03-05T19:46:41.974Z,94389.59
2023-03-05T19:49:08.970Z,94390.00
2023-03-05T19:51:35.928Z,94389.75
2023-03-05T19:54:04.648Z,94343.59
2023-03-05T19:56:31.624Z,94395.78
2023-03-05T19:58:58.268Z,94404.59
2023-03-05T20:01:27.228Z,94399.38
2023-03-05T20:03:56.432Z,94396.13
2023-03-05T20:06:24.323Z,94399.84
2023-03-05T20:08:51.235Z,94382.91
2023-03-05T20:11:18.996Z,94398.94
2023-03-05T20:13:46.398Z,94365.97
2023-03-05T20:16:19.014Z,94395.78
2023-03-05T20:18:46.529Z,94401.91
2023-03-05T20:21:21.311Z,94398.47
2023-03-05T20:23:48.063Z,94386.88
2023-03-05T20:26:14.779Z,94406.72
2023-03-05T20:28:41.529Z,94407.06
2023-03-05T20:31:08.688Z,94392.78
2023-03-05T20:33:35.455Z,94410.69
2023-03-05T20:36:02.165Z,94402.03
2023-03-05T20:38:30.992Z,94399.00
2023-03-05T20:41:04.863Z,94400.09
2023-03-05T20:43:35.566Z,94371.78
2023-03-05T20:46:02.951Z,94404.72
2023-03-05T20:48:32.744Z,94390.19
2023-03-05T20:51:10.640Z,94385.06
2023-03-05T20:53:37.314Z,94395.50
2023-03-05T20:56:04.065Z,94402.19
2023-03-05T20:58:30.709Z,94392.63
2023-03-05T21:00:57.499Z,94399.09
2023-03-05T21:03:25.619Z,94383.66
2023-03-05T21:05:55.838Z,94386.06
2023-03-05T21:08:26.157Z,94357.25
2023-03-05T21:10:52.886Z,94408.25
2023-03-05T21:13:19.684Z,94393.88
2023-03-05T21:15:46.628Z,94404.97
2023-03-05T21:18:13.380Z,94385.22
2023-03-05T21:20:41.212Z,94373.88
2023-03-05T21:23:08.065Z,94321.59
2023-03-05T21:25:36.658Z,94397.75
2023-03-05T21:28:09.776Z,94381.94
2023-03-05T21:30:39.664Z,94360.44
2023-03-05T21:33:10.051Z,94393.66
2023-03-05T21:35:38.026Z,94338.84
2023-03-05T21:38:06.637Z,94320.22
2023-03-05T21:40:35.863Z,94376.22
2023-03-05T21:43:03.749Z,94324.13
2023-03-05T21:45:30.844Z,94342.47
2023-03-05T21:47:58.876Z,94337.22
2023-03-05T21:50:26.345Z,94394.56
2023-03-05T21:52:53.291Z,94392.09
2023-03-05T21:55:29.289Z,94346.72
2023-03-05T21:57:56.134Z,94321.88
2023-03-05T22:00:23.250Z,94350.00
2023-03-05T22:02:50.012Z,94372.94
2023-03-05T22:05:17.543Z,94332.13
2023-03-05T22:07:44.601Z,94374.69
2023-03-05T22:10:14.860Z,94317.59
2023-03-05T22:13:09.418Z,94390.91
2023-03-05T22:15:46.583Z,94297.56
2023-03-05T22:18:15.901Z,94333.53
2023-03-05T22:20:42.979Z,94380.69
2023-03-05T22:23:10.513Z,94338.31
2023-03-05T22:25:37.921Z,94391.47
2023-03-05T22:28:05.753Z,94373.66
2023-03-05T22:30:33.060Z,94353.94
2023-03-05T22:33:01.225Z,94384.19
2023-03-05T22:35:28.342Z,94336.19
2023-03-05T22:37:55.380Z,94355.38
2023-03-05T22:40:22.763Z,94354.00
2023-03-05T22:42:49.683Z,94367.88
2023-03-05T22:45:18.003Z,94348.78
2023-03-05T22:47:51.697Z,94351.19
2023-03-05T22:50:18.529Z,94385.88
2023-03-05T22:52:45.278Z,94383.19
2023-03-05T22:55:14.067Z,94368.53
2023-03-05T22:57:41.499Z,94373.47
2023-03-05T23:00:14.197Z,94399.63
2023-03-05T23:02:41.833Z,94388.63
2023-03-05T23:05:09.780Z,94387.66
2023-03-05T23:07:38.540Z,94403.88
2023-03-05T23:10:17.671Z,94400.47
2023-03-05T23:12:49.400Z,94399.72
2023-03-05T23:15:20.697Z,94391.97
2023-03-05T23:17:47.508Z,94397.56
2023-03-05T23:20:16.957Z,94390.13
2023-03-05T23:22:45.160Z,94391.50
2023-03-05T23:25:14.109Z,94398.44
2023-03-05T23:27:41.200Z,94403.69
2023-03-05T23:30:19.608Z,94414.09
2023-03-05T23:33:10.529Z,94410.63
2023-03-05T23:35:39.955Z,94421.78
2023-03-05T23:38:11.796Z,94370.91
2023-03-05T23:40:49.727Z,94405.00
2023-03-05T23:43:18.092Z,94415.03
2023-03-05T23:45:48.178Z,94408.16
2023-03-05T23:48:16.681Z,94419.09
2023-03-05T23:50:46.321Z,94425.09
2023-03-05T23:53:19.655Z,94428.59
2023-03-05T23:55:47.117Z,94402.78
2023-03-05T23:58:14.428Z,94430.16
